Time;durP1;ratioP1;P1;durP2;ratioP2;P2;SDS_P1;SDS_P2;PMS_P1;PMS_P2;Temp;Humidity;BMP_temperature;BMP_pressure;BME280_temperature;BME280_humidity;BME280_pressure;Samples;Min_cycle;Max_cycle;Signal;HPM_P1;HPM_P2
2019/06/24 00:00:10;;;;;;;7.7;6.9;;;;;;;;;;;;;
2019/06/24 00:02:37;;;;;;;8.2;7.3;;;;;;;;;;;;;
2019/06/24 00:05:02;;;;;;;7.5;6.8;;;;;;;;;;;;;
2019/06/24 00:07:27;;;;;;;10.1;8.1;;;;;;;;;;;;;
2019/06/24 00:09:53;;;;;;;8.8;7.9;;;;;;;;;;;;;
2019/06/24 00:12:18;;;;;;;9.2;8.3;;;;;;;;;;;;;
2019/06/24 00:14:43;;;;;;;9;8.1;;;;;;;;;;;;;
2019/06/24 00:17:08;;;;;;;8.3;7.4;;;;;;;;;;;;;
2019/06/24 00:19:33;;;;;;;8.7;7.8;;;;;;;;;;;;;
2019/06/24 00:21:58;;;;;;;9.8;7.9;;;;;;;;;;;;;
2019/06/24 00:24:23;;;;;;;9;8.2;;;;;;;;;;;;;
2019/06/24 00:26:48;;;;;;;9.3;7.9;;;;;;;;;;;;;
2019/06/24 00:29:19;;;;;;;9;8.1;;;;;;;;;;;;;
2019/06/24 00:31:48;;;;;;;10.6;9.5;;;;;;;;;;;;;
2019/06/24 00:34:13;;;;;;;9.3;8.5;;;;;;;;;;;;;
2019/06/24 00:36:42;;;;;;;10.1;9;;;;;;;;;;;;;
2019/06/24 00:39:08;;;;;;;9.7;8.9;;;;;;;;;;;;;
2019/06/24 00:41:36;;;;;;;10.7;9.6;;;;;;;;;;;;;
2019/06/24 00:44:01;;;;;;;10.4;9.5;;;;;;;;;;;;;
2019/06/24 00:46:26;;;;;;;11;9.8;;;;;;;;;;;;;
2019/06/24 00:48:56;;;;;;;10.5;9.5;;;;;;;;;;;;;
2019/06/24 00:51:21;;;;;;;13;10.7;;;;;;;;;;;;;
2019/06/24 00:53:54;;;;;;;11.1;10;;;;;;;;;;;;;
2019/06/24 00:56:20;;;;;;;11.9;10.7;;;;;;;;;;;;;
2019/06/24 00:58:45;;;;;;;13;11.7;;;;;;;;;;;;;
2019/06/24 01:02:32;;;;;;;12.1;10.9;;;;;;;;;;;;;
2019/06/24 01:03:35;;;;;;;11.8;10.6;;;;;;;;;;;;;
2019/06/24 01:06:00;;;;;;;12.2;11;;;;;;;;;;;;;
2019/06/24 01:08:25;;;;;;;11.4;10.4;;;;;;;;;;;;;
2019/06/24 01:10:50;;;;;;;12.2;11.1;;;;;;;;;;;;;
2019/06/24 01:13:15;;;;;;;12.3;11;;;;;;;;;;;;;
2019/06/24 01:15:40;;;;;;;12.4;11.3;;;;;;;;;;;;;
2019/06/24 01:18:05;;;;;;;13.6;12.2;;;;;;;;;;;;;
2019/06/24 01:20:30;;;;;;;12.1;10.8;;;;;;;;;;;;;
2019/06/24 01:22:55;;;;;;;12;10.8;;;;;;;;;;;;;
2019/06/24 01:25:20;;;;;;;12.8;11.3;;;;;;;;;;;;;
2019/06/24 01:27:45;;;;;;;11.8;10.8;;;;;;;;;;;;;
2019/06/24 01:30:11;;;;;;;12.5;11.3;;;;;;;;;;;;;
2019/06/24 01:32:36;;;;;;;12.9;11.5;;;;;;;;;;;;;
2019/06/24 01:35:09;;;;;;;12.7;11.4;;;;;;;;;;;;;
2019/06/24 01:37:34;;;;;;;12.9;11.7;;;;;;;;;;;;;
2019/06/24 01:39:59;;;;;;;13.4;12;;;;;;;;;;;;;
2019/06/24 01:42:25;;;;;;;12.8;11.6;;;;;;;;;;;;;
2019/06/24 01:44:50;;;;;;;13.5;12.1;;;;;;;;;;;;;
2019/06/24 01:47:15;;;;;;;13.2;11.8;;;;;;;;;;;;;
2019/06/24 01:49:40;;;;;;;13.2;12;;;;;;;;;;;;;
2019/06/24 01:52:05;;;;;;;13.4;12.2;;;;;;;;;;;;;
2019/06/24 01:54:31;;;;;;;13.4;12.1;;;;;;;;;;;;;
2019/06/24 01:56:56;;;;;;;13.7;12.4;;;;;;;;;;;;;
2019/06/24 01:59:22;;;;;;;13.8;12.3;;;;;;;;;;;;;
2019/06/24 02:01:47;;;;;;;13;11.7;;;;;;;;;;;;;
2019/06/24 02:04:12;;;;;;;13.6;12.3;;;;;;;;;;;;;
2019/06/24 02:06:38;;;;;;;14.1;12;;;;;;;;;;;;;
2019/06/24 02:09:04;;;;;;;14.4;13;;;;;;;;;;;;;
2019/06/24 02:11:29;;;;;;;14.2;12.7;;;;;;;;;;;;;
2019/06/24 02:13:54;;;;;;;13.3;12.1;;;;;;;;;;;;;
2019/06/24 02:16:20;;;;;;;13.3;12;;;;;;;;;;;;;
2019/06/24 02:18:45;;;;;;;12.5;11.3;;;;;;;;;;;;;
2019/06/24 02:21:10;;;;;;;14.7;12.2;;;;;;;;;;;;;
2019/06/24 02:23:35;;;;;;;13.7;12.3;;;;;;;;;;;;;
2019/06/24 02:26:00;;;;;;;13.6;12.4;;;;;;;;;;;;;
2019/06/24 02:28:25;;;;;;;15;13.6;;;;;;;;;;;;;
2019/06/24 02:30:50;;;;;;;13.9;12.5;;;;;;;;;;;;;
2019/06/24 02:33:15;;;;;;;15.1;12.7;;;;;;;;;;;;;
2019/06/24 02:35:40;;;;;;;13.4;12.2;;;;;;;;;;;;;
2019/06/24 02:38:07;;;;;;;14.3;12.9;;;;;;;;;;;;;
2019/06/24 02:40:32;;;;;;;14.4;13.1;;;;;;;;;;;;;
2019/06/24 02:42:57;;;;;;;16.4;13.5;;;;;;;;;;;;;
2019/06/24 02:45:22;;;;;;;15.7;14;;;;;;;;;;;;;
2019/06/24 02:47:47;;;;;;;14;12.6;;;;;;;;;;;;;
2019/06/24 02:50:12;;;;;;;14.5;13;;;;;;;;;;;;;
2019/06/24 02:52:38;;;;;;;16.1;14.5;;;;;;;;;;;;;
2019/06/24 02:55:04;;;;;;;15.8;14.2;;;;;;;;;;;;;
2019/06/24 02:57:29;;;;;;;18.1;14;;;;;;;;;;;;;
2019/06/24 02:59:56;;;;;;;16.4;14.3;;;;;;;;;;;;;
2019/06/24 03:02:21;;;;;;;13.7;12.4;;;;;;;;;;;;;
2019/06/24 03:04:46;;;;;;;15;13.6;;;;;;;;;;;;;
2019/06/24 03:07:11;;;;;;;16.8;14.2;;;;;;;;;;;;;
2019/06/24 03:09:36;;;;;;;15.8;14.2;;;;;;;;;;;;;
2019/06/24 03:12:01;;;;;;;15.8;14.2;;;;;;;;;;;;;
2019/06/24 03:14:26;;;;;;;16.5;14.3;;;;;;;;;;;;;
2019/06/24 03:16:51;;;;;;;15.7;14;;;;;;;;;;;;;
2019/06/24 03:19:16;;;;;;;15.4;13.8;;;;;;;;;;;;;
2019/06/24 03:21:42;;;;;;;14.7;13.2;;;;;;;;;;;;;
2019/06/24 03:24:07;;;;;;;16;14.4;;;;;;;;;;;;;
2019/06/24 03:26:33;;;;;;;15.5;13.9;;;;;;;;;;;;;
2019/06/24 03:28:57;;;;;;;15.2;13.6;;;;;;;;;;;;;
2019/06/24 03:31:22;;;;;;;15.1;13.5;;;;;;;;;;;;;
2019/06/24 03:33:47;;;;;;;15.6;14;;;;;;;;;;;;;
2019/06/24 03:36:12;;;;;;;14;12.7;;;;;;;;;;;;;
2019/06/24 03:38:37;;;;;;;15;13.5;;;;;;;;;;;;;
2019/06/24 03:41:02;;;;;;;15.7;13.8;;;;;;;;;;;;;
2019/06/24 03:43:28;;;;;;;17.9;13.5;;;;;;;;;;;;;
2019/06/24 03:45:53;;;;;;;16;14.4;;;;;;;;;;;;;
2019/06/24 03:48:18;;;;;;;15.5;13.6;;;;;;;;;;;;;
2019/06/24 03:50:48;;;;;;;16.1;14.4;;;;;;;;;;;;;
2019/06/24 03:53:08;;;;;;;14.3;12.9;;;;;;;;;;;;;
2019/06/24 03:55:33;;;;;;;13.7;12.3;;;;;;;;;;;;;
2019/06/24 03:57:58;;;;;;;14.5;13;;;;;;;;;;;;;
2019/06/24 04:02:29;;;;;;;15.7;14;;;;;;;17.2;93.09863;964.7084;;;;
2019/06/24 04:04:54;;;;;;;15.2;13.8;;;;;;;17.18;92.67383;964.7561;;;;
2019/06/24 04:07:19;;;;;;;15.7;14.1;;;;;;;17.15;93.24121;964.7676;;;;
2019/06/24 04:09:44;;;;;;;16.6;14.9;;;;;;;17.12;92.88477;964.7544;;;;
2019/06/24 04:12:09;;;;;;;16;14;;;;;;;17.09;93.18262;964.7815;;;;
2019/06/24 04:14:34;;;;;;;16.8;14.2;;;;;;;17.08;93.30566;964.7796;;;;
2019/06/24 04:16:59;;;;;;;15.3;13.8;;;;;;;17.09;93.78906;964.8038;;;;
2019/06/24 04:19:24;;;;;;;15.3;13.8;;;;;;;17.16;94.0127;964.7223;;;;
2019/06/24 04:21:49;;;;;;;14.3;13;;;;;;;17.18;93.5625;964.7603;;;;
2019/06/24 04:24:14;;;;;;;15.1;13.3;;;;;;;17.21;93.1123;964.7554;;;;
2019/06/24 04:26:39;;;;;;;15.3;13.8;;;;;;;17.21;93.16113;964.7875;;;;
2019/06/24 04:29:05;;;;;;;15.5;14.1;;;;;;;17.22;93.54883;964.7899;;;;
2019/06/24 04:31:30;;;;;;;15.4;13.8;;;;;;;17.24;93.43555;964.8699;;;;
2019/06/24 04:33:55;;;;;;;14.7;13.2;;;;;;;17.3;93.49512;964.8741;;;;
2019/06/24 04:36:20;;;;;;;13.2;12.1;;;;;;;17.39;92.55371;964.9311;;;;
2019/06/24 04:38:46;;;;;;;14.5;13.2;;;;;;;17.41;92.92188;964.9473;;;;
2019/06/24 04:41:11;;;;;;;13.1;11.7;;;;;;;17.49;93.20801;964.9352;;;;
2019/06/24 04:44:15;;;;;;;14.4;13;;;;;;;17.49;92.64551;964.9246;;;;
2019/06/24 04:46:40;;;;;;;13.8;12.5;;;;;;;17.44;93.21973;964.8807;;;;
2019/06/24 04:49:05;;;;;;;13.3;12.1;;;;;;;17.43;92.84375;964.8461;;;;
2019/06/24 04:51:31;;;;;;;13.6;12.2;;;;;;;17.58;91.70703;964.7992;;;;
2019/06/24 04:53:56;;;;;;;12.5;11.3;;;;;;;17.66;91.58301;964.8035;;;;
2019/06/24 04:56:27;;;;;;;12.1;10.9;;;;;;;17.78;91.15137;964.7996;;;;
2019/06/24 04:58:49;;;;;;;11.6;10.4;;;;;;;17.84;90.89355;964.798;;;;
2019/06/24 05:01:27;;;;;;;12;10.8;;;;;;;17.82;91.14844;964.7483;;;;
2019/06/24 05:04:01;;;;;;;13.1;11.7;;;;;;;17.86;91.18945;964.782;;;;
2019/06/24 05:06:26;;;;;;;12.3;11;;;;;;;17.91;91.08496;964.7317;;;;
2019/06/24 05:09:01;;;;;;;12.2;10.7;;;;;;;17.94;90.74023;964.7589;;;;
2019/06/24 05:11:42;;;;;;;11.1;9.9;;;;;;;18.01;90.8252;964.7648;;;;
2019/06/24 05:14:07;;;;;;;12.3;10.6;;;;;;;18.07;90.3457;964.7399;;;;
2019/06/24 05:16:44;;;;;;;11.3;10.3;;;;;;;18.15;89.96289;964.7586;;;;
2019/06/24 05:19:09;;;;;;;11.1;10;;;;;;;18.18;89.60645;964.7899;;;;
2019/06/24 05:21:47;;;;;;;11.3;10.1;;;;;;;18.3;88.82227;964.8069;;;;
2019/06/24 05:24:17;;;;;;;11.1;10;;;;;;;18.36;88.1416;964.8191;;;;
2019/06/24 05:26:42;;;;;;;9.5;8.5;;;;;;;18.48;87.65137;964.8195;;;;
2019/06/24 05:29:07;;;;;;;9.8;8.8;;;;;;;18.5;87.58594;964.8178;;;;
2019/06/24 05:31:32;;;;;;;9.8;8.8;;;;;;;18.53;87.69727;964.8591;;;;
2019/06/24 05:33:57;;;;;;;9.4;8.4;;;;;;;18.53;87.73242;964.8672;;;;
2019/06/24 05:36:22;;;;;;;8.9;8;;;;;;;18.59;87.00391;964.9117;;;;
2019/06/24 05:38:49;;;;;;;7.9;7.2;;;;;;;18.67;86.8584;964.9073;;;;
2019/06/24 05:41:14;;;;;;;8.9;8;;;;;;;18.66;86.62207;964.9526;;;;
2019/06/24 05:43:39;;;;;;;8.2;7.3;;;;;;;18.82;85.66602;964.95;;;;
2019/06/24 05:46:04;;;;;;;8;7.2;;;;;;;18.85;86.17578;964.9119;;;;
2019/06/24 05:48:29;;;;;;;8.7;7.3;;;;;;;18.93;85.82813;964.9435;;;;
2019/06/24 05:50:54;;;;;;;8.1;7.3;;;;;;;18.98;85.07617;964.9004;;;;
2019/06/24 05:53:21;;;;;;;7.7;6.9;;;;;;;19.15;83.81738;964.8897;;;;
2019/06/24 05:55:46;;;;;;;7.5;6.8;;;;;;;19.16;84.10059;964.9142;;;;
2019/06/24 05:58:16;;;;;;;7.2;6.5;;;;;;;19.22;83.41895;964.885;;;;
2019/06/24 06:00:46;;;;;;;7.9;7.1;;;;;;;19.28;83.06641;964.916;;;;
2019/06/24 06:03:11;;;;;;;7.6;6.8;;;;;;;19.33;83.03125;964.9818;;;;
2019/06/24 06:05:36;;;;;;;7.5;6.7;;;;;;;19.42;82.13086;964.9688;;;;
2019/06/24 06:08:05;;;;;;;10.3;6.5;;;;;;;19.49;82.0166;965.0153;;;;
2019/06/24 06:10:30;;;;;;;10.6;7.3;;;;;;;19.51;81.91211;965.0319;;;;
2019/06/24 06:12:55;;;;;;;7.6;6.8;;;;;;;19.46;82.10156;965.0753;;;;
2019/06/24 06:15:20;;;;;;;7.8;7;;;;;;;19.58;82.4873;965.0694;;;;
2019/06/24 06:17:46;;;;;;;7.4;6.3;;;;;;;19.67;81.74219;965.0756;;;;
2019/06/24 06:20:11;;;;;;;9.2;7.1;;;;;;;19.73;81.97754;965.0891;;;;
2019/06/24 06:22:36;;;;;;;8.7;7.4;;;;;;;19.86;81.80078;965.0997;;;;
2019/06/24 06:25:01;;;;;;;7.6;6.4;;;;;;;19.85;81.55176;965.0815;;;;
2019/06/24 06:27:26;;;;;;;8.2;6.6;;;;;;;19.9;81.9248;965.0292;;;;
2019/06/24 06:29:51;;;;;;;7.2;6.1;;;;;;;20.11;81.06934;965.1548;;;;
2019/06/24 06:32:16;;;;;;;7.5;6.3;;;;;;;20.17;80.74121;965.1178;;;;
2019/06/24 06:34:47;;;;;;;7.3;5.9;;;;;;;20.22;79.80957;965.1222;;;;
2019/06/24 06:37:12;;;;;;;8.3;5.7;;;;;;;20.36;78.2334;965.1397;;;;
2019/06/24 06:39:37;;;;;;;9.4;5.7;;;;;;;20.28;78.70117;965.0884;;;;
2019/06/24 06:42:19;;;;;;;7.1;5.6;;;;;;;20.4;77.71094;965.0947;;;;
2019/06/24 06:44:45;;;;;;;6.2;5.6;;;;;;;20.4;78.51172;965.1005;;;;
2019/06/24 06:47:10;;;;;;;8.5;5.3;;;;;;;20.57;77.56348;965.1121;;;;
2019/06/24 06:49:35;;;;;;;6.3;5.1;;;;;;;20.6;78.31152;965.0628;;;;
2019/06/24 06:52:00;;;;;;;7.4;4.6;;;;;;;20.68;77.50098;965.1556;;;;
2019/06/24 06:54:25;;;;;;;5.9;4.6;;;;;;;20.75;76.74609;965.115;;;;
2019/06/24 06:56:54;;;;;;;5.4;4.9;;;;;;;20.84;77.25879;965.0881;;;;
2019/06/24 06:59:19;;;;;;;6.1;4.9;;;;;;;20.97;77.20996;965.0768;;;;
2019/06/24 07:01:46;;;;;;;5.9;4.3;;;;;;;21.04;76.25586;965.1057;;;;
2019/06/24 07:04:23;;;;;;;7.5;4.5;;;;;;;21.06;76.37598;965.1127;;;;
2019/06/24 07:06:58;;;;;;;7;4.7;;;;;;;21;76.55371;965.1044;;;;
2019/06/24 07:09:23;;;;;;;5.2;4.3;;;;;;;21.15;75.64941;965.0678;;;;
2019/06/24 07:11:48;;;;;;;5.1;4.5;;;;;;;21.15;76.68652;965.1043;;;;
2019/06/24 07:14:15;;;;;;;4.9;4.3;;;;;;;21.23;75.15527;965.0698;;;;
2019/06/24 07:17:04;;;;;;;4.9;4.4;;;;;;;21.3;75.29785;965.0383;;;;
2019/06/24 07:19:29;;;;;;;5.3;4.4;;;;;;;21.35;74.43262;965.0119;;;;
2019/06/24 07:21:54;;;;;;;4.4;3.9;;;;;;;21.54;73.61523;964.9861;;;;
2019/06/24 07:24:20;;;;;;;6.5;4.3;;;;;;;21.55;75.04492;965.0466;;;;
2019/06/24 07:26:45;;;;;;;5.5;4.7;;;;;;;21.43;74.19922;965.0598;;;;
2019/06/24 07:29:11;;;;;;;4.5;4.1;;;;;;;21.54;74.64063;965.0831;;;;
2019/06/24 07:31:42;;;;;;;4.7;4.3;;;;;;;21.69;73.25;965.0129;;;;
2019/06/24 07:34:07;;;;;;;4.4;3.7;;;;;;;21.59;74.20117;965.0201;;;;
2019/06/24 07:36:32;;;;;;;4.9;4.1;;;;;;;21.61;74.22949;964.9941;;;;
2019/06/24 07:38:57;;;;;;;5.5;4.3;;;;;;;21.7;73.66504;965.0168;;;;
2019/06/24 07:41:27;;;;;;;5.1;4.3;;;;;;;21.76;73.39355;965.005;;;;
2019/06/24 07:43:54;;;;;;;5.9;4.2;;;;;;;21.82;74.51172;965.0488;;;;
2019/06/24 07:46:19;;;;;;;5;4.2;;;;;;;21.84;74.91699;964.9897;;;;
2019/06/24 07:48:51;;;;;;;5.3;4.8;;;;;;;21.96;73.77832;964.9804;;;;
2019/06/24 07:51:27;;;;;;;6.1;4.8;;;;;;;22.01;73.66895;964.9576;;;;
2019/06/24 07:53:52;;;;;;;5.6;5.1;;;;;;;22.02;74.47559;964.9294;;;;
2019/06/24 07:56:19;;;;;;;5.3;4.8;;;;;;;22.04;72.89453;964.9339;;;;
2019/06/24 07:59:02;;;;;;;7;5.3;;;;;;;21.96;73.34277;964.8972;;;;
2019/06/24 08:01:49;;;;;;;6.5;4.9;;;;;;;21.95;73.61133;964.9081;;;;
2019/06/24 08:04:22;;;;;;;6.1;5.5;;;;;;;22.16;72.20605;964.8794;;;;
2019/06/24 08:06:48;;;;;;;6.2;4.9;;;;;;;22.17;72.49219;964.8315;;;;
2019/06/24 08:09:25;;;;;;;6.7;4.7;;;;;;;22.16;72.52441;964.8179;;;;
2019/06/24 08:11:57;;;;;;;5.5;4.3;;;;;;;22.28;70.31055;964.7662;;;;
2019/06/24 08:14:22;;;;;;;4.8;4;;;;;;;22.27;70.56641;964.8206;;;;
2019/06/24 08:16:47;;;;;;;6.1;4.2;;;;;;;22.26;71.81934;964.8273;;;;
2019/06/24 08:19:12;;;;;;;5.4;4.2;;;;;;;22.3;71.88477;964.8292;;;;
2019/06/24 08:21:39;;;;;;;4.5;4.1;;;;;;;22.36;72.27344;964.8895;;;;
2019/06/24 08:24:04;;;;;;;5.3;3.9;;;;;;;22.41;73.08398;964.8879;;;;
2019/06/24 08:26:32;;;;;;;6.6;4.5;;;;;;;22.45;70.44336;964.8513;;;;
2019/06/24 08:28:57;;;;;;;5.6;4.3;;;;;;;22.56;70.11816;964.8632;;;;
2019/06/24 08:31:22;;;;;;;5;4.2;;;;;;;22.61;71.14258;964.908;;;;
2019/06/24 08:33:47;;;;;;;6.3;4.1;;;;;;;22.65;70.27441;964.8856;;;;
2019/06/24 08:36:15;;;;;;;5.9;4.1;;;;;;;22.64;70.07031;964.8965;;;;
2019/06/24 08:38:52;;;;;;;8.5;4.4;;;;;;;22.56;70.37695;964.8975;;;;
2019/06/24 08:41:22;;;;;;;6.4;4.3;;;;;;;22.61;70.14746;964.9703;;;;
2019/06/24 08:43:49;;;;;;;10.1;4.7;;;;;;;22.84;68.91797;964.9608;;;;
2019/06/24 08:46:25;;;;;;;8.5;4.2;;;;;;;22.85;70.58789;964.9905;;;;
2019/06/24 08:49:07;;;;;;;5.6;4.1;;;;;;;22.89;68.02637;965.0139;;;;
2019/06/24 08:51:36;;;;;;;4.6;3.6;;;;;;;22.96;67.36328;964.9918;;;;
2019/06/24 08:54:01;;;;;;;5.9;3.8;;;;;;;22.92;67.10742;965.0257;;;;
2019/06/24 08:56:26;;;;;;;5;3.8;;;;;;;22.99;66.97754;964.991;;;;
2019/06/24 08:58:52;;;;;;;4.7;3.8;;;;;;;23.05;65.2793;964.9501;;;;
2019/06/24 09:01:17;;;;;;;5.7;3.7;;;;;;;22.93;67.38281;964.9048;;;;
2019/06/24 09:03:44;;;;;;;5.8;4;;;;;;;23.11;66.86523;964.8879;;;;
2019/06/24 09:06:09;;;;;;;5.5;3.6;;;;;;;23.28;66.40332;964.8621;;;;
2019/06/24 09:08:34;;;;;;;5.2;3.6;;;;;;;23.2;66.4043;964.8759;;;;
2019/06/24 09:10:59;;;;;;;5.3;3.6;;;;;;;23.24;67.0498;964.8575;;;;
2019/06/24 09:13:28;;;;;;;21.2;5;;;;;;;23.35;63.95117;964.8694;;;;
2019/06/24 09:15:53;;;;;;;5.6;3.4;;;;;;;23.44;63.48828;964.8723;;;;
2019/06/24 09:18:38;;;;;;;4.2;2.9;;;;;;;23.39;62.47461;964.9143;;;;
2019/06/24 09:21:08;;;;;;;4.1;3;;;;;;;23.46;62.56738;964.8387;;;;
2019/06/24 09:23:33;;;;;;;7.5;3.6;;;;;;;23.52;62.6123;964.9246;;;;
2019/06/24 09:25:58;;;;;;;3.6;3;;;;;;;23.7;64.11914;964.8923;;;;
2019/06/24 09:28:23;;;;;;;4.6;3.3;;;;;;;23.6;64.34277;964.9077;;;;
2019/06/24 09:30:49;;;;;;;4;3.1;;;;;;;23.66;65.54785;964.8345;;;;
2019/06/24 09:33:14;;;;;;;4.9;3.1;;;;;;;23.78;62.58789;964.8361;;;;
2019/06/24 09:35:39;;;;;;;4.9;2.9;;;;;;;23.8;61.86816;964.8223;;;;
2019/06/24 09:38:04;;;;;;;6.9;2.6;;;;;;;23.88;63.20703;964.8789;;;;
2019/06/24 09:40:29;;;;;;;4.8;2.8;;;;;;;24.03;61.25977;964.87;;;;
2019/06/24 09:42:54;;;;;;;4.4;2.9;;;;;;;24.05;61.29785;964.8569;;;;
2019/06/24 09:45:28;;;;;;;3.5;2.6;;;;;;;24.2;59.56055;964.7589;;;;
2019/06/24 09:47:53;;;;;;;3.8;2.7;;;;;;;24.27;58.77441;964.8331;;;;
2019/06/24 09:50:18;;;;;;;4.5;2.6;;;;;;;24.27;57.77734;964.8714;;;;
2019/06/24 09:52:43;;;;;;;6;2.9;;;;;;;24.26;57.85938;964.8065;;;;
2019/06/24 09:55:19;;;;;;;4.2;2.8;;;;;;;24.06;60.8125;964.8283;;;;
2019/06/24 09:57:44;;;;;;;3.4;2.8;;;;;;;24.22;58.31738;964.9008;;;;
2019/06/24 10:00:09;;;;;;;4;2.7;;;;;;;24.25;58.28516;964.9235;;;;
2019/06/24 10:02:34;;;;;;;5.7;2.8;;;;;;;24.12;57.69824;964.8619;;;;
2019/06/24 10:04:59;;;;;;;4.7;2.9;;;;;;;24.14;57.86719;964.8539;;;;
2019/06/24 10:07:36;;;;;;;3.3;2.4;;;;;;;24.15;58.99609;964.8435;;;;
2019/06/24 10:10:01;;;;;;;3.5;2.5;;;;;;;24.29;58.57617;964.8506;;;;
2019/06/24 10:12:26;;;;;;;5.3;2.5;;;;;;;24.33;56.51563;964.9263;;;;
2019/06/24 10:14:51;;;;;;;3.8;2.7;;;;;;;24.48;56.16504;964.9067;;;;
2019/06/24 10:17:16;;;;;;;4.9;2.8;;;;;;;24.4;56.93848;964.9596;;;;
2019/06/24 10:19:43;;;;;;;4;2.6;;;;;;;24.54;58.4541;964.8768;;;;
2019/06/24 10:22:08;;;;;;;5.8;2.6;;;;;;;24.57;57.49414;964.8361;;;;
2019/06/24 10:24:33;;;;;;;5.4;2.5;;;;;;;24.53;58.00098;964.812;;;;
2019/06/24 10:27:02;;;;;;;4.3;2.5;;;;;;;24.67;57.60352;964.8606;;;;
2019/06/24 10:29:39;;;;;;;3.6;2.5;;;;;;;24.83;57.12598;964.8211;;;;
2019/06/24 10:32:08;;;;;;;3.9;2.4;;;;;;;24.79;57.13086;964.7662;;;;
2019/06/24 10:34:43;;;;;;;7.7;2.2;;;;;;;24.88;56.64355;964.8381;;;;
2019/06/24 10:37:08;;;;;;;3.5;2.6;;;;;;;24.8;57.56055;964.7905;;;;
2019/06/24 10:39:35;;;;;;;4.9;2.6;;;;;;;24.99;55.11035;964.9043;;;;
2019/06/24 10:42:07;;;;;;;6.9;2.4;;;;;;;24.89;55.11133;964.8779;;;;
2019/06/24 10:44:33;;;;;;;4.4;2.5;;;;;;;25.02;56.44727;964.8038;;;;
2019/06/24 10:47:02;;;;;;;6.1;2.3;;;;;;;24.98;55.08594;964.8159;;;;
2019/06/24 10:49:45;;;;;;;3.5;2.3;;;;;;;25.07;56.3584;964.79;;;;
2019/06/24 10:52:10;;;;;;;7.7;2.2;;;;;;;25.1;53.51953;964.8148;;;;
2019/06/24 10:54:35;;;;;;;6.8;2.3;;;;;;;25.14;53.21484;964.7706;;;;
2019/06/24 10:57:12;;;;;;;4;2.1;;;;;;;25.1;53.35254;964.7841;;;;
2019/06/24 10:59:37;;;;;;;4.4;2;;;;;;;25.22;52.37988;964.7983;;;;
2019/06/24 11:02:02;;;;;;;4;2.3;;;;;;;25.45;52.83496;964.8045;;;;
2019/06/24 11:04:44;;;;;;;2.3;2.1;;;;;;;25.35;52.03906;964.8467;;;;
2019/06/24 11:07:09;;;;;;;5.9;2.4;;;;;;;25.18;53.7666;964.7792;;;;
2019/06/24 11:09:34;;;;;;;5.4;2.2;;;;;;;25.18;52.29102;964.8011;;;;
2019/06/24 11:11:59;;;;;;;3.2;2.1;;;;;;;25.18;51.75586;964.6894;;;;
2019/06/24 11:14:24;;;;;;;9.3;2.4;;;;;;;25.43;53.73633;964.7142;;;;
2019/06/24 11:16:49;;;;;;;3.5;2.2;;;;;;;25.42;53.59375;964.6667;;;;
2019/06/24 11:19:28;;;;;;;5;2;;;;;;;25.48;52.32715;964.6447;;;;
2019/06/24 11:22:08;;;;;;;3.4;2.4;;;;;;;25.6;55.94922;964.5876;;;;
2019/06/24 11:24:33;;;;;;;6.7;2.3;;;;;;;25.63;52.22559;964.6323;;;;
2019/06/24 11:26:58;;;;;;;4.1;2.4;;;;;;;25.54;53.80957;964.6365;;;;
2019/06/24 11:29:29;;;;;;;5.1;2.1;;;;;;;25.64;51.64355;964.5941;;;;
2019/06/24 11:31:54;;;;;;;4;2.1;;;;;;;25.73;51.92773;964.6184;;;;
2019/06/24 11:34:19;;;;;;;6;2.6;;;;;;;25.8;55.05762;964.6296;;;;
2019/06/24 11:36:44;;;;;;;5.3;2.6;;;;;;;25.98;54.36328;964.6166;;;;
2019/06/24 11:39:12;;;;;;;3.3;2.2;;;;;;;26.01;52.03027;964.685;;;;
2019/06/24 11:41:37;;;;;;;5.6;2.5;;;;;;;26.12;52.19922;964.6208;;;;
2019/06/24 11:44:13;;;;;;;4.8;2.5;;;;;;;26.08;53.25586;964.6153;;;;
2019/06/24 11:46:38;;;;;;;4.8;2.4;;;;;;;26.15;55.20703;964.5991;;;;
2019/06/24 11:49:03;;;;;;;3.4;2.3;;;;;;;26.2;51.53906;964.5638;;;;
2019/06/24 11:51:41;;;;;;;6.2;2.4;;;;;;;26.03;50.90039;964.5488;;;;
2019/06/24 11:54:09;;;;;;;4.4;2.5;;;;;;;26.01;52.30469;964.5881;;;;
2019/06/24 11:56:47;;;;;;;4.6;2.5;;;;;;;26.06;53.31348;964.6019;;;;
2019/06/24 11:59:19;;;;;;;4.2;2.4;;;;;;;26.24;51.90234;964.5526;;;;
2019/06/24 12:01:53;;;;;;;5.1;2.2;;;;;;;26.29;50.88281;964.5181;;;;
2019/06/24 12:04:31;;;;;;;5.4;2.4;;;;;;;26.31;52.88867;964.4888;;;;
2019/06/24 12:07:16;;;;;;;4.1;2.4;;;;;;;26.51;50.88281;964.5223;;;;
2019/06/24 12:09:41;;;;;;;6.5;2.3;;;;;;;26.46;52.11914;964.5277;;;;
2019/06/24 12:12:11;;;;;;;4.4;2.5;;;;;;;26.42;53.35449;964.5269;;;;
2019/06/24 12:14:58;;;;;;;9.3;2.8;;;;;;;26.52;52.29297;964.5108;;;;
2019/06/24 12:17:23;;;;;;;5;2.5;;;;;;;26.63;51.21973;964.4997;;;;
2019/06/24 12:20:06;;;;;;;3.7;2.2;;;;;;;26.83;50.19043;964.4629;;;;
2019/06/24 12:22:34;;;;;;;14.5;3.4;;;;;;;26.86;50.45801;964.5061;;;;
2019/06/24 12:24:59;;;;;;;16.8;4.2;;;;;;;27;50.71191;964.5369;;;;
2019/06/24 12:27:28;;;;;;;13.8;3.1;;;;;;;26.86;49.03711;964.5344;;;;
2019/06/24 12:29:53;;;;;;;5.6;2.8;;;;;;;26.91;49.05371;964.495;;;;
2019/06/24 12:32:19;;;;;;;5.4;2.3;;;;;;;27.15;48.58984;964.4584;;;;
2019/06/24 12:34:48;;;;;;;5.2;2.2;;;;;;;27.3;49.25098;964.4922;;;;
2019/06/24 12:37:14;;;;;;;3.9;2.4;;;;;;;27.25;49.78418;964.4562;;;;
2019/06/24 12:39:41;;;;;;;4.1;2.1;;;;;;;27.54;46.38281;964.4106;;;;
2019/06/24 12:42:06;;;;;;;4.4;1.8;;;;;;;27.73;45.93652;964.4269;;;;
2019/06/24 12:44:40;;;;;;;3.6;2;;;;;;;27.74;45.60156;964.4402;;;;
2019/06/24 12:47:05;;;;;;;2.7;1.7;;;;;;;27.83;43.68457;964.4165;;;;
2019/06/24 12:49:31;;;;;;;3.3;1.7;;;;;;;27.68;46.88867;964.4142;;;;
2019/06/24 12:52:11;;;;;;;4.4;2;;;;;;;27.69;42.85742;964.3708;;;;
2019/06/24 12:54:51;;;;;;;5.1;1.8;;;;;;;27.76;44.24023;964.3395;;;;
2019/06/24 12:57:16;;;;;;;2.9;1.7;;;;;;;27.81;44.55566;964.3572;;;;
2019/06/24 12:59:43;;;;;;;4;1.9;;;;;;;27.99;45.125;964.347;;;;
2019/06/24 13:02:10;;;;;;;5.4;1.8;;;;;;;27.96;43.88965;964.3153;;;;
2019/06/24 13:04:36;;;;;;;2.3;1.7;;;;;;;28;45.17383;964.351;;;;
2019/06/24 13:07:01;;;;;;;2.3;1.5;;;;;;;27.97;45.30273;964.3334;;;;
2019/06/24 13:09:26;;;;;;;3.9;1.7;;;;;;;28;43.36621;964.3365;;;;
2019/06/24 13:11:51;;;;;;;3.2;1.8;;;;;;;28.13;42.62402;964.3655;;;;
2019/06/24 13:14:16;;;;;;;4.1;1.5;;;;;;;28.06;43.53906;964.3549;;;;
2019/06/24 13:16:41;;;;;;;2.9;1.5;;;;;;;27.96;42.66797;964.4587;;;;
2019/06/24 13:19:06;;;;;;;5.1;1.6;;;;;;;27.9;42.57813;964.408;;;;
2019/06/24 13:21:33;;;;;;;5.5;1.6;;;;;;;28;41.77344;964.4086;;;;
2019/06/24 13:23:58;;;;;;;5;1.6;;;;;;;28.07;39.97266;964.4356;;;;
2019/06/24 13:26:23;;;;;;;4.4;1.8;;;;;;;27.95;42.21191;964.3503;;;;
2019/06/24 13:28:48;;;;;;;4;1.6;;;;;;;27.87;42.73145;964.4188;;;;
2019/06/24 13:31:14;;;;;;;4;2;;;;;;;27.68;44.56738;964.4065;;;;
2019/06/24 13:33:39;;;;;;;3.4;1.5;;;;;;;27.8;44.93945;964.3883;;;;
2019/06/24 13:36:12;;;;;;;2.5;1.7;;;;;;;28.08;43.91309;964.3831;;;;
2019/06/24 13:38:52;;;;;;;3;1.6;;;;;;;28;43.61719;964.3197;;;;
2019/06/24 13:41:27;;;;;;;3.4;1.9;;;;;;;28.01;43.6543;964.243;;;;
2019/06/24 13:44:02;;;;;;;4.4;1.6;;;;;;;28.09;45.65039;964.2966;;;;
2019/06/24 13:46:40;;;;;;;6;1.9;;;;;;;28.11;44.09473;964.2244;;;;
2019/06/24 13:49:05;;;;;;;3;1.8;;;;;;;28.21;44.78711;964.2169;;;;
2019/06/24 13:51:30;;;;;;;4.5;1.6;;;;;;;28.11;44.51465;964.2271;;;;
2019/06/24 13:54:01;;;;;;;4.5;1.9;;;;;;;27.94;45.63477;964.1789;;;;
2019/06/24 13:56:43;;;;;;;4.9;1.6;;;;;;;28.02;45.10449;964.1942;;;;
2019/06/24 13:59:08;;;;;;;3.4;1.7;;;;;;;27.87;45.4834;964.1844;;;;
2019/06/24 14:01:34;;;;;;;3.8;1.7;;;;;;;27.78;44.56543;964.2047;;;;
2019/06/24 14:04:03;;;;;;;3.1;1.9;;;;;;;27.81;43.44336;964.119;;;;
2019/06/24 14:06:28;;;;;;;3.4;1.8;;;;;;;27.93;43.72949;964.1955;;;;
2019/06/24 14:08:54;;;;;;;5.4;1.7;;;;;;;28.06;47.84961;964.1277;;;;
2019/06/24 14:11:35;;;;;;;3.7;1.5;;;;;;;27.98;43.73438;964.1639;;;;
2019/06/24 14:14:00;;;;;;;2;1.6;;;;;;;28.05;43.6582;964.1105;;;;
2019/06/24 14:16:25;;;;;;;3.2;1.7;;;;;;;28.09;43.81836;964.0115;;;;
2019/06/24 14:18:52;;;;;;;3;1.6;;;;;;;27.97;43.1709;964.1323;;;;
2019/06/24 14:21:17;;;;;;;4.2;1.5;;;;;;;28.2;42.7627;964.0798;;;;
2019/06/24 14:23:42;;;;;;;3.4;1.8;;;;;;;28.2;42.96582;964.0906;;;;
2019/06/24 14:26:07;;;;;;;3.5;1.7;;;;;;;28.23;42.95703;964.1678;;;;
2019/06/24 14:28:32;;;;;;;3.9;1.7;;;;;;;28.22;42.15332;964.1703;;;;
2019/06/24 14:30:57;;;;;;;3.5;1.6;;;;;;;28.32;42.25879;964.1088;;;;
2019/06/24 14:33:22;;;;;;;4.8;1.3;;;;;;;28.26;42.28809;964.1688;;;;
2019/06/24 14:35:48;;;;;;;3;1.5;;;;;;;28.23;41.24316;964.1959;;;;
2019/06/24 14:38:13;;;;;;;2;1.3;;;;;;;28.55;39.23535;964.1948;;;;
2019/06/24 14:40:38;;;;;;;2.3;1.2;;;;;;;28.61;38.07813;964.2414;;;;
2019/06/24 14:43:03;;;;;;;3.5;1.3;;;;;;;28.46;40.01855;964.2114;;;;
2019/06/24 14:45:28;;;;;;;3.3;1.4;;;;;;;28.75;40.55957;964.2704;;;;
2019/06/24 14:47:53;;;;;;;1.9;1.3;;;;;;;28.83;41.21484;964.2098;;;;
2019/06/24 14:50:18;;;;;;;4.2;1.4;;;;;;;28.77;41.01758;964.3308;;;;
2019/06/24 14:52:43;;;;;;;2.6;1.5;;;;;;;28.61;44.16699;964.2567;;;;
2019/06/24 14:55:08;;;;;;;3.9;1.7;;;;;;;28.69;42.82129;964.2512;;;;
2019/06/24 14:57:33;;;;;;;1.7;1.4;;;;;;;28.9;40.3457;964.2692;;;;
2019/06/24 14:59:58;;;;;;;3;1.5;;;;;;;28.78;41.19824;964.3017;;;;
2019/06/24 15:02:28;;;;;;;2.7;1.6;;;;;;;28.68;41.22461;964.2911;;;;
2019/06/24 15:04:57;;;;;;;3.7;1.7;;;;;;;28.03;42.9375;964.3101;;;;
2019/06/24 15:07:22;;;;;;;5.1;1.8;;;;;;;27.9;43.7041;964.2978;;;;
2019/06/24 15:09:55;;;;;;;3.7;1.7;;;;;;;28.22;42.16504;964.3313;;;;
2019/06/24 15:12:27;;;;;;;3.9;1.9;;;;;;;27.92;42.83105;964.3442;;;;
2019/06/24 15:14:57;;;;;;;3.9;2;;;;;;;28.06;43.69434;964.3791;;;;
2019/06/24 15:17:22;;;;;;;3.4;1.6;;;;;;;28.18;43.06055;964.3295;;;;
2019/06/24 15:19:47;;;;;;;2.5;1.5;;;;;;;28.54;40.14551;964.2907;;;;
2019/06/24 15:22:12;;;;;;;2.5;1.5;;;;;;;28.46;41.25293;964.3389;;;;
2019/06/24 15:24:37;;;;;;;2.8;1.8;;;;;;;28.38;43.33105;964.2989;;;;
2019/06/24 15:27:02;;;;;;;4.3;1.7;;;;;;;28.42;43.38184;964.2811;;;;
2019/06/24 15:29:27;;;;;;;4.3;1.4;;;;;;;28.38;39.47168;964.3066;;;;
2019/06/24 15:31:53;;;;;;;3.4;1.3;;;;;;;28.38;40.61035;964.2664;;;;
2019/06/24 15:34:18;;;;;;;2.9;1.5;;;;;;;28.33;40.27051;964.2828;;;;